Time,TemperatureF,DewpointF,PressureIn,WindDirection,WindDirectionDegrees,WindSpeedMPH,WindSpeedGustMPH,Humidity,HourlyPrecipIn,Conditions,Clouds,dailyrainin,SoftwareType,DateUTC
2013-04-04 00:02:00,47.2,35.0,30.28,East,93,0.0,3.0,63,0.00,,,0.00,weatherlink.com 1.10,2013-04-04 04:02:00,
2013-04-04 00:17:00,46.4,36.0,30.28,SW,214,0.0,0.0,66,0.00,,,0.00,weatherlink.com 1.10,2013-04-04 04:17:00,
2013-04-04 00:32:00,46.4,34.0,30.28,ENE,57,0.0,5.0,62,0.00,,,0.00,weatherlink.com 1.10,2013-04-04 04:32:00,
2013-04-04 00:47:00,46.1,36.0,30.28,SW,236,0.0,1.0,69,0.00,,,0.00,weatherlink.com 1.10,2013-04-04 04:47:00,
2013-04-04 01:02:00,45.3,36.0,30.28,NNE,27,0.0,0.0,71,0.01,,,0.01,weatherlink.com 1.10,2013-04-04 05:02:00,
2013-04-04 01:17:00,44.2,38.0,30.27,ENE,57,0.0,0.0,78,0.01,,,0.01,weatherlink.com 1.10,2013-04-04 05:17:00,
2013-04-04 01:32:00,43.6,38.0,30.28,SSW,207,0.0,0.0,79,0.02,,,0.02,weatherlink.com 1.10,2013-04-04 05:32:00,
2013-04-04 01:47:00,43.2,37.0,30.28,North,350,0.0,0.0,80,0.03,,,0.03,weatherlink.com 1.10,2013-04-04 05:47:00,
2013-04-04 02:02:00,42.8,38.0,30.28,North,5,0.0,0.0,82,0.04,,,0.05,weatherlink.com 1.10,2013-04-04 06:02:00,
2013-04-04 02:17:00,42.4,39.0,30.28,North,5,0.0,0.0,86,0.05,,,0.06,weatherlink.com 1.10,2013-04-04 06:17:00,
2013-04-04 02:32:00,42.0,38.0,30.27,North,5,0.0,0.0,86,0.06,,,0.08,weatherlink.com 1.10,2013-04-04 06:32:00,
2013-04-04 02:47:00,41.7,38.0,30.27,East,96,0.0,0.0,87,0.06,,,0.09,weatherlink.com 1.10,2013-04-04 06:47:00,
2013-04-04 03:02:00,41.5,38.0,30.27,East,96,0.0,0.0,88,0.06,,,0.11,weatherlink.com 1.10,2013-04-04 07:02:00,
2013-04-04 03:17:00,41.4,38.0,30.26,East,97,0.0,0.0,88,0.07,,,0.13,weatherlink.com 1.10,2013-04-04 07:17:00,
2013-04-04 03:32:00,41.5,38.0,30.26,SSW,204,0.0,0.0,87,0.07,,,0.15,weatherlink.com 1.10,2013-04-04 07:32:00,
2013-04-04 03:47:00,41.2,38.0,30.25,West,280,0.0,0.0,88,0.09,,,0.18,weatherlink.com 1.10,2013-04-04 07:47:00,
2013-04-04 04:02:00,41.1,38.0,30.24,WNW,291,0.0,0.0,88,0.08,,,0.19,weatherlink.com 1.10,2013-04-04 08:02:00,
2013-04-04 04:17:00,40.9,38.0,30.24,NNE,31,0.0,0.0,88,0.07,,,0.20,weatherlink.com 1.10,2013-04-04 08:17:00,
2013-04-04 04:32:00,40.7,38.0,30.23,NNW,335,0.0,0.0,89,0.06,,,0.21,weatherlink.com 1.10,2013-04-04 08:32:00,
2013-04-04 04:47:00,40.6,38.0,30.22,WNW,297,0.0,0.0,89,0.04,,,0.22,weatherlink.com 1.10,2013-04-04 08:47:00,
2013-04-04 05:05:00,40.5,38.0,30.22,WNW,297,0.0,0.0,89,0.06,,,0.25,weatherlink.com 1.10,2013-04-04 09:05:00,
2013-04-04 05:18:00,40.4,38.0,30.21,WNW,298,0.0,0.0,89,0.08,,,0.28,weatherlink.com 1.10,2013-04-04 09:18:00,
2013-04-04 05:33:00,40.2,37.0,30.21,WNW,296,0.0,0.0,89,0.08,,,0.29,weatherlink.com 1.10,2013-04-04 09:33:00,
2013-04-04 05:48:00,40.3,37.0,30.20,SSE,163,0.0,0.0,89,0.07,,,0.29,weatherlink.com 1.10,2013-04-04 09:48:00,
2013-04-04 06:03:00,40.4,38.0,30.20,ENE,70,0.0,0.0,89,0.04,,,0.29,weatherlink.com 1.10,2013-04-04 10:03:00,
2013-04-04 06:18:00,40.2,37.0,30.20,NW,312,0.0,0.0,89,0.02,,,0.30,weatherlink.com 1.10,2013-04-04 10:18:00,
2013-04-04 06:33:00,40.4,38.0,30.20,SSW,201,0.0,0.0,89,0.01,,,0.30,weatherlink.com 1.10,2013-04-04 10:33:00,
2013-04-04 06:48:00,40.3,37.0,30.20,North,359,0.0,0.0,89,0.01,,,0.30,weatherlink.com 1.10,2013-04-04 10:48:00,
2013-04-04 07:03:00,40.3,37.0,30.19,East,86,0.0,0.0,88,0.01,,,0.30,weatherlink.com 1.10,2013-04-04 11:03:00,
2013-04-04 07:18:00,40.3,37.0,30.18,ENE,58,0.0,2.0,86,0.00,,,0.30,weatherlink.com 1.10,2013-04-04 11:18:00,
2013-04-04 07:33:00,39.9,36.0,30.19,ESE,105,0.0,1.0,87,0.01,,,0.31,weatherlink.com 1.10,2013-04-04 11:33:00,
2013-04-04 07:48:00,39.9,36.0,30.18,ESE,118,0.0,0.0,87,0.01,,,0.31,weatherlink.com 1.10,2013-04-04 11:48:00,
2013-04-04 08:03:00,40.0,37.0,30.18,ENE,66,0.0,0.0,88,0.02,,,0.32,weatherlink.com 1.10,2013-04-04 12:03:00,
2013-04-04 08:18:00,40.1,37.0,30.18,NNW,332,0.0,1.0,88,0.02,,,0.32,weatherlink.com 1.10,2013-04-04 12:18:00,
2013-04-04 08:33:00,40.3,36.0,30.18,East,101,0.0,1.0,85,0.01,,,0.32,weatherlink.com 1.10,2013-04-04 12:33:00,
2013-04-04 08:48:00,40.4,37.0,30.18,SW,226,0.0,0.0,87,0.01,,,0.32,weatherlink.com 1.10,2013-04-04 12:48:00,
2013-04-04 09:03:00,40.1,36.0,30.19,NW,326,0.0,3.0,86,0.01,,,0.33,weatherlink.com 1.10,2013-04-04 13:03:00,
2013-04-04 09:18:00,39.4,37.0,30.20,ESE,111,0.0,0.0,89,0.03,,,0.35,weatherlink.com 1.10,2013-04-04 13:18:00,
2013-04-04 09:35:00,38.6,36.0,30.20,WSW,248,0.0,0.0,89,0.10,,,0.42,weatherlink.com 1.10,2013-04-04 13:35:00,
2013-04-04 09:48:00,38.3,35.0,30.22,SE,132,0.0,1.0,89,0.13,,,0.45,weatherlink.com 1.10,2013-04-04 13:48:00,
2013-04-04 10:03:00,38.2,35.0,30.20,NNW,330,0.0,0.0,89,0.13,,,0.46,weatherlink.com 1.10,2013-04-04 14:03:00,
2013-04-04 10:18:00,38.7,36.0,30.19,WSW,255,0.0,0.0,89,0.11,,,0.46,weatherlink.com 1.10,2013-04-04 14:18:00,
2013-04-04 10:33:00,38.5,36.0,30.19,SSW,205,0.0,0.0,90,0.05,,,0.47,weatherlink.com 1.10,2013-04-04 14:33:00,
2013-04-04 10:48:00,38.2,36.0,30.20,WSW,251,0.0,0.0,90,0.02,,,0.47,weatherlink.com 1.10,2013-04-04 14:48:00,
2013-04-04 11:03:00,38.2,36.0,30.19,SSE,160,0.0,1.0,90,0.01,,,0.47,weatherlink.com 1.10,2013-04-04 15:03:00,
2013-04-04 11:18:00,38.3,36.0,30.20,SSE,160,0.0,1.0,90,0.03,,,0.49,weatherlink.com 1.10,2013-04-04 15:18:00,
2013-04-04 11:33:00,38.0,35.0,30.20,SE,133,0.0,3.0,89,0.03,,,0.50,weatherlink.com 1.10,2013-04-04 15:33:00,
2013-04-04 11:48:00,38.0,35.0,30.20,WSW,249,0.0,4.0,90,0.07,,,0.54,weatherlink.com 1.10,2013-04-04 15:48:00,
2013-04-04 12:03:00,37.8,35.0,30.20,SE,140,0.0,6.0,90,0.09,,,0.56,weatherlink.com 1.10,2013-04-04 16:03:00,
2013-04-04 12:18:00,37.6,35.0,30.20,WNW,293,0.0,0.0,90,0.11,,,0.60,weatherlink.com 1.10,2013-04-04 16:18:00,
2013-04-04 12:33:00,37.2,35.0,30.19,NW,304,0.0,0.0,90,0.17,,,0.67,weatherlink.com 1.10,2013-04-04 16:33:00,
2013-04-04 12:48:00,37.0,34.0,30.20,WSW,248,0.0,0.0,90,0.13,,,0.67,weatherlink.com 1.10,2013-04-04 16:48:00,
2013-04-04 13:03:00,37.3,35.0,30.20,SSW,208,0.0,2.0,90,0.13,,,0.69,weatherlink.com 1.10,2013-04-04 17:03:00,
2013-04-04 13:18:00,37.1,35.0,30.19,ESE,118,0.0,3.0,90,0.09,,,0.69,weatherlink.com 1.10,2013-04-04 17:18:00,
2013-04-04 13:33:00,37.3,35.0,30.19,SSE,149,0.0,2.0,90,0.02,,,0.69,weatherlink.com 1.10,2013-04-04 17:33:00,
2013-04-04 13:48:00,37.8,35.0,30.17,SSE,148,0.0,0.0,90,0.02,,,0.69,weatherlink.com 1.10,2013-04-04 17:48:00,
2013-04-04 14:03:00,38.0,35.0,30.16,South,180,0.0,0.0,90,0.00,,,0.69,weatherlink.com 1.10,2013-04-04 18:03:00,
2013-04-04 14:18:00,38.2,36.0,30.16,ESE,110,0.0,0.0,90,0.00,,,0.69,weatherlink.com 1.10,2013-04-04 18:18:00,
2013-04-04 14:33:00,38.2,36.0,30.15,East,97,0.0,0.0,90,0.01,,,0.70,weatherlink.com 1.10,2013-04-04 18:33:00,
2013-04-04 15:18:00,38.3,36.0,30.13,SSW,208,0.0,0.0,90,0.03,,,0.72,weatherlink.com 1.10,2013-04-04 19:18:00,
2013-04-04 15:33:00,38.4,36.0,30.13,NW,324,0.0,0.0,90,0.02,,,0.72,weatherlink.com 1.10,2013-04-04 19:33:00,
2013-04-04 15:48:00,38.8,36.0,30.12,West,278,0.0,0.0,89,0.02,,,0.73,weatherlink.com 1.10,2013-04-04 19:48:00,
2013-04-04 16:34:00,38.5,36.0,30.11,SW,217,0.0,0.0,90,0.02,,,0.75,weatherlink.com 1.10,2013-04-04 20:34:00,
2013-04-04 17:04:00,38.9,36.0,30.11,WSW,256,0.0,0.0,89,0.05,,,0.78,weatherlink.com 1.10,2013-04-04 21:04:00,
2013-04-04 17:34:00,39.2,36.0,30.11,NE,37,0.0,0.0,89,0.03,,,0.78,weatherlink.com 1.10,2013-04-04 21:34:00,
2013-04-04 17:49:00,39.6,37.0,30.11,ESE,117,0.0,0.0,89,0.01,,,0.78,weatherlink.com 1.10,2013-04-04 21:49:00,
2013-04-04 18:19:00,39.8,37.0,30.11,ESE,117,0.0,0.0,89,0.00,,,0.78,weatherlink.com 1.10,2013-04-04 22:19:00,
2013-04-04 18:49:00,40.2,37.0,30.10,ESE,114,0.0,0.0,89,0.00,,,0.78,weatherlink.com 1.10,2013-04-04 22:49:00,
2013-04-04 19:04:00,40.0,37.0,30.10,ESE,114,0.0,0.0,90,0.00,,,0.78,weatherlink.com 1.10,2013-04-04 23:04:00,
2013-04-04 19:19:00,40.1,37.0,30.09,ESE,114,0.0,0.0,89,0.00,,,0.78,weatherlink.com 1.10,2013-04-04 23:19:00,
2013-04-04 19:35:00,39.9,37.0,30.09,ESE,115,0.0,0.0,89,0.01,,,0.79,weatherlink.com 1.10,2013-04-04 23:35:00,
2013-04-04 19:49:00,40.1,37.0,30.09,ESE,115,0.0,0.0,89,0.01,,,0.79,weatherlink.com 1.10,2013-04-04 23:49:00,
2013-04-04 20:04:00,40.0,37.0,30.09,ESE,117,0.0,0.0,89,0.01,,,0.79,weatherlink.com 1.10,2013-04-05 00:04:00,
2013-04-04 20:19:00,40.0,37.0,30.09,ESE,115,0.0,0.0,89,0.01,,,0.79,weatherlink.com 1.10,2013-04-05 00:19:00,
2013-04-04 20:34:00,40.0,37.0,30.09,ESE,115,0.0,0.0,89,0.00,,,0.79,weatherlink.com 1.10,2013-04-05 00:34:00,
2013-04-04 20:49:00,39.9,37.0,30.09,ESE,115,0.0,0.0,88,0.00,,,0.79,weatherlink.com 1.10,2013-04-05 00:49:00,
2013-04-04 21:04:00,39.9,37.0,30.10,ESE,114,0.0,0.0,88,0.00,,,0.79,weatherlink.com 1.10,2013-04-05 01:04:00,
2013-04-04 21:19:00,40.0,37.0,30.11,ESE,114,0.0,0.0,87,0.00,,,0.79,weatherlink.com 1.10,2013-04-05 01:19:00,
2013-04-04 21:34:00,40.2,37.0,30.11,ESE,114,0.0,0.0,87,0.00,,,0.79,weatherlink.com 1.10,2013-04-05 01:34:00,
2013-04-04 21:50:00,40.2,37.0,30.11,ESE,114,0.0,0.0,87,0.00,,,0.79,weatherlink.com 1.10,2013-04-05 01:50:00,
2013-04-04 22:04:00,40.2,37.0,30.10,ESE,114,0.0,0.0,87,0.00,,,0.79,weatherlink.com 1.10,2013-04-05 02:04:00,
2013-04-04 22:19:00,40.2,37.0,30.10,ESE,114,0.0,0.0,88,0.00,,,0.79,weatherlink.com 1.10,2013-04-05 02:19:00,
2013-04-04 22:34:00,40.2,37.0,30.10,ESE,114,0.0,0.0,88,0.00,,,0.79,weatherlink.com 1.10,2013-04-05 02:34:00,
2013-04-04 23:04:00,40.2,37.0,30.09,ESE,114,0.0,0.0,88,0.00,,,0.79,weatherlink.com 1.10,2013-04-05 03:04:00,
2013-04-04 23:19:00,40.2,37.0,30.09,ESE,114,0.0,0.0,88,0.00,,,0.79,weatherlink.com 1.10,2013-04-05 03:19:00,
2013-04-04 23:34:00,40.3,37.0,30.09,ESE,115,0.0,0.0,88,0.00,,,0.79,weatherlink.com 1.10,2013-04-05 03:34:00,
2013-04-04 23:49:00,40.3,37.0,30.10,ESE,114,0.0,0.0,88,0.00,,,0.79,weatherlink.com 1.10,2013-04-05 03:49:00,